sensor_id;sensor_type;location;lat;lon;timestamp;temperature;humidity
7648;DHT22;3866;48.020;11.720;2022-09-09T00:01:14;14.30;99.90
7648;DHT22;3866;48.020;11.720;2022-09-09T00:03:51;14.10;99.90
7648;DHT22;3866;48.020;11.720;2022-09-09T00:06:24;14.00;99.90
7648;DHT22;3866;48.020;11.720;2022-09-09T00:09:00;13.90;99.90
7648;DHT22;3866;48.020;11.720;2022-09-09T00:11:35;13.80;99.90
7648;DHT22;3866;48.020;11.720;2022-09-09T00:14:13;13.70;99.90
7648;DHT22;3866;48.020;11.720;2022-09-09T00:16:47;13.70;99.90
7648;DHT22;3866;48.020;11.720;2022-09-09T00:19:22;13.60;99.90
7648;DHT22;3866;48.020;11.720;2022-09-09T00:22:00;13.60;99.90
7648;DHT22;3866;48.020;11.720;2022-09-09T00:24:34;13.60;99.90
7648;DHT22;3866;48.020;11.720;2022-09-09T00:27:11;13.70;99.90
7648;DHT22;3866;48.020;11.720;2022-09-09T00:29:43;13.70;99.90
7648;DHT22;3866;48.020;11.720;2022-09-09T00:32:13;13.60;99.90
7648;DHT22;3866;48.020;11.720;2022-09-09T00:34:46;13.60;99.90
7648;DHT22;3866;48.020;11.720;2022-09-09T00:37:14;13.50;99.90
7648;DHT22;3866;48.020;11.720;2022-09-09T00:39:43;13.40;99.90
7648;DHT22;3866;48.020;11.720;2022-09-09T00:42:15;13.50;99.90
7648;DHT22;3866;48.020;11.720;2022-09-09T00:44:58;13.60;99.90
7648;DHT22;3866;48.020;11.720;2022-09-09T00:47:38;13.70;99.90
7648;DHT22;3866;48.020;11.720;2022-09-09T00:53:02;13.60;99.90
7648;DHT22;3866;48.020;11.720;2022-09-09T00:55:38;13.90;99.90
7648;DHT22;3866;48.020;11.720;2022-09-09T00:58:08;13.90;99.90
7648;DHT22;3866;48.020;11.720;2022-09-09T01:00:42;14.20;99.90
7648;DHT22;3866;48.020;11.720;2022-09-09T01:03:30;14.30;99.90
7648;DHT22;3866;48.020;11.720;2022-09-09T01:06:12;14.30;99.90
7648;DHT22;3866;48.020;11.720;2022-09-09T01:08:53;14.40;99.90
7648;DHT22;3866;48.020;11.720;2022-09-09T01:11:25;14.30;99.90
7648;DHT22;3866;48.020;11.720;2022-09-09T01:14:00;14.40;99.90
7648;DHT22;3866;48.020;11.720;2022-09-09T01:16:30;14.40;99.90
7648;DHT22;3866;48.020;11.720;2022-09-09T01:18:58;14.40;99.90
7648;DHT22;3866;48.020;11.720;2022-09-09T01:21:34;14.40;99.90
7648;DHT22;3866;48.020;11.720;2022-09-09T01:24:19;14.40;99.90
7648;DHT22;3866;48.020;11.720;2022-09-09T01:26:50;14.40;99.90
7648;DHT22;3866;48.020;11.720;2022-09-09T01:29:20;14.40;99.90
7648;DHT22;3866;48.020;11.720;2022-09-09T01:31:53;14.50;99.90
7648;DHT22;3866;48.020;11.720;2022-09-09T01:34:22;14.40;99.90
7648;DHT22;3866;48.020;11.720;2022-09-09T01:36:53;14.40;99.90
7648;DHT22;3866;48.020;11.720;2022-09-09T01:39:26;14.30;99.90
7648;DHT22;3866;48.020;11.720;2022-09-09T01:41:55;14.30;99.90
7648;DHT22;3866;48.020;11.720;2022-09-09T01:44:23;14.40;99.90
7648;DHT22;3866;48.020;11.720;2022-09-09T01:46:51;14.30;99.90
7648;DHT22;3866;48.020;11.720;2022-09-09T01:49:18;14.40;99.90
7648;DHT22;3866;48.020;11.720;2022-09-09T01:51:47;14.40;99.90
7648;DHT22;3866;48.020;11.720;2022-09-09T01:54:15;14.40;99.90
7648;DHT22;3866;48.020;11.720;2022-09-09T01:56:50;14.50;99.90
7648;DHT22;3866;48.020;11.720;2022-09-09T01:59:35;14.70;99.90
7648;DHT22;3866;48.020;11.720;2022-09-09T02:02:10;14.80;99.90
7648;DHT22;3866;48.020;11.720;2022-09-09T02:04:40;14.90;99.90
7648;DHT22;3866;48.020;11.720;2022-09-09T02:07:19;14.80;99.90
7648;DHT22;3866;48.020;11.720;2022-09-09T02:09:52;14.80;99.90
7648;DHT22;3866;48.020;11.720;2022-09-09T02:12:25;14.90;99.90
7648;DHT22;3866;48.020;11.720;2022-09-09T02:14:58;15.00;99.90
7648;DHT22;3866;48.020;11.720;2022-09-09T02:17:30;15.00;99.90
7648;DHT22;3866;48.020;11.720;2022-09-09T02:20:03;14.90;99.90
7648;DHT22;3866;48.020;11.720;2022-09-09T02:22:33;14.80;99.90
7648;DHT22;3866;48.020;11.720;2022-09-09T02:25:02;15.00;99.90
7648;DHT22;3866;48.020;11.720;2022-09-09T02:27:30;15.00;99.90
7648;DHT22;3866;48.020;11.720;2022-09-09T02:29:59;14.90;99.90
7648;DHT22;3866;48.020;11.720;2022-09-09T02:32:29;14.70;99.90
7648;DHT22;3866;48.020;11.720;2022-09-09T02:35:00;14.80;99.90
7648;DHT22;3866;48.020;11.720;2022-09-09T02:37:31;14.70;99.90
7648;DHT22;3866;48.020;11.720;2022-09-09T02:39:59;14.70;99.90
7648;DHT22;3866;48.020;11.720;2022-09-09T02:42:25;14.70;99.90
7648;DHT22;3866;48.020;11.720;2022-09-09T02:44:52;14.70;99.90
7648;DHT22;3866;48.020;11.720;2022-09-09T02:47:30;14.70;99.90
7648;DHT22;3866;48.020;11.720;2022-09-09T02:50:11;14.60;99.90
7648;DHT22;3866;48.020;11.720;2022-09-09T02:52:50;14.70;99.90
7648;DHT22;3866;48.020;11.720;2022-09-09T02:55:26;14.80;99.90
7648;DHT22;3866;48.020;11.720;2022-09-09T02:57:55;14.80;99.90
7648;DHT22;3866;48.020;11.720;2022-09-09T03:00:24;14.80;99.90
7648;DHT22;3866;48.020;11.720;2022-09-09T03:02:53;14.70;99.90
7648;DHT22;3866;48.020;11.720;2022-09-09T03:05:20;14.60;99.90
7648;DHT22;3866;48.020;11.720;2022-09-09T03:07:47;14.60;99.90
7648;DHT22;3866;48.020;11.720;2022-09-09T03:10:16;14.50;99.90
7648;DHT22;3866;48.020;11.720;2022-09-09T03:12:43;14.60;99.90
7648;DHT22;3866;48.020;11.720;2022-09-09T03:15:09;14.60;99.90
7648;DHT22;3866;48.020;11.720;2022-09-09T03:17:36;14.60;99.90
7648;DHT22;3866;48.020;11.720;2022-09-09T03:20:05;14.60;99.90
7648;DHT22;3866;48.020;11.720;2022-09-09T03:22:33;14.60;99.90
7648;DHT22;3866;48.020;11.720;2022-09-09T03:25:00;14.60;99.90
7648;DHT22;3866;48.020;11.720;2022-09-09T03:27:28;14.60;99.90
7648;DHT22;3866;48.020;11.720;2022-09-09T03:29:55;14.50;99.90
7648;DHT22;3866;48.020;11.720;2022-09-09T03:32:22;14.50;99.90
7648;DHT22;3866;48.020;11.720;2022-09-09T03:34:51;14.50;99.90
7648;DHT22;3866;48.020;11.720;2022-09-09T03:37:19;14.20;99.90
7648;DHT22;3866;48.020;11.720;2022-09-09T03:39:48;14.20;99.90
7648;DHT22;3866;48.020;11.720;2022-09-09T03:42:15;14.20;99.90
7648;DHT22;3866;48.020;11.720;2022-09-09T03:44:44;14.10;99.90
7648;DHT22;3866;48.020;11.720;2022-09-09T03:47:13;14.10;99.90
7648;DHT22;3866;48.020;11.720;2022-09-09T03:49:40;14.00;99.90
7648;DHT22;3866;48.020;11.720;2022-09-09T03:52:08;14.10;99.90
7648;DHT22;3866;48.020;11.720;2022-09-09T03:54:36;14.20;99.90
7648;DHT22;3866;48.020;11.720;2022-09-09T03:57:04;14.20;99.90
7648;DHT22;3866;48.020;11.720;2022-09-09T03:59:31;14.20;99.90
7648;DHT22;3866;48.020;11.720;2022-09-09T04:01:58;14.30;99.90
7648;DHT22;3866;48.020;11.720;2022-09-09T04:04:25;14.40;99.90
7648;DHT22;3866;48.020;11.720;2022-09-09T04:06:52;14.50;99.90
7648;DHT22;3866;48.020;11.720;2022-09-09T04:09:19;14.60;99.90
7648;DHT22;3866;48.020;11.720;2022-09-09T04:11:48;14.60;99.90
7648;DHT22;3866;48.020;11.720;2022-09-09T04:14:15;14.50;99.90
7648;DHT22;3866;48.020;11.720;2022-09-09T04:16:42;14.50;99.90
7648;DHT22;3866;48.020;11.720;2022-09-09T04:19:10;14.60;99.90
7648;DHT22;3866;48.020;11.720;2022-09-09T04:21:38;14.50;99.90
7648;DHT22;3866;48.020;11.720;2022-09-09T04:24:06;14.60;99.90
7648;DHT22;3866;48.020;11.720;2022-09-09T04:26:34;14.50;99.90
7648;DHT22;3866;48.020;11.720;2022-09-09T04:29:03;14.50;99.90
7648;DHT22;3866;48.020;11.720;2022-09-09T04:31:31;14.50;99.90
7648;DHT22;3866;48.020;11.720;2022-09-09T04:33:58;14.30;99.90
7648;DHT22;3866;48.020;11.720;2022-09-09T04:36:27;14.40;99.90
7648;DHT22;3866;48.020;11.720;2022-09-09T04:38:54;14.40;99.90
7648;DHT22;3866;48.020;11.720;2022-09-09T04:41:21;14.40;99.90
7648;DHT22;3866;48.020;11.720;2022-09-09T04:43:48;14.30;99.90
7648;DHT22;3866;48.020;11.720;2022-09-09T04:46:16;14.20;99.90
7648;DHT22;3866;48.020;11.720;2022-09-09T04:48:43;14.30;99.90
7648;DHT22;3866;48.020;11.720;2022-09-09T04:51:12;14.30;99.90
7648;DHT22;3866;48.020;11.720;2022-09-09T04:53:39;14.20;99.90
7648;DHT22;3866;48.020;11.720;2022-09-09T04:56:08;14.30;99.90
7648;DHT22;3866;48.020;11.720;2022-09-09T04:58:35;14.40;99.90
7648;DHT22;3866;48.020;11.720;2022-09-09T05:01:06;14.30;99.90
7648;DHT22;3866;48.020;11.720;2022-09-09T05:03:35;14.30;99.90
7648;DHT22;3866;48.020;11.720;2022-09-09T05:06:04;14.30;99.90
7648;DHT22;3866;48.020;11.720;2022-09-09T05:08:31;14.30;99.90
7648;DHT22;3866;48.020;11.720;2022-09-09T05:10:58;14.40;99.90
7648;DHT22;3866;48.020;11.720;2022-09-09T05:13:25;14.30;99.90
7648;DHT22;3866;48.020;11.720;2022-09-09T05:15:53;14.50;99.90
7648;DHT22;3866;48.020;11.720;2022-09-09T05:18:20;14.60;99.90
7648;DHT22;3866;48.020;11.720;2022-09-09T05:20:49;14.50;99.90
7648;DHT22;3866;48.020;11.720;2022-09-09T05:23:16;14.50;99.90
7648;DHT22;3866;48.020;11.720;2022-09-09T05:25:43;14.40;99.90
7648;DHT22;3866;48.020;11.720;2022-09-09T05:28:12;14.40;99.90
7648;DHT22;3866;48.020;11.720;2022-09-09T05:30:39;14.50;99.90
7648;DHT22;3866;48.020;11.720;2022-09-09T05:33:05;14.60;99.90
7648;DHT22;3866;48.020;11.720;2022-09-09T05:35:34;14.60;99.90
7648;DHT22;3866;48.020;11.720;2022-09-09T05:38:03;14.70;99.90
7648;DHT22;3866;48.020;11.720;2022-09-09T05:40:29;14.80;99.90
7648;DHT22;3866;48.020;11.720;2022-09-09T05:43:00;14.80;99.90
7648;DHT22;3866;48.020;11.720;2022-09-09T05:45:28;14.90;99.90
7648;DHT22;3866;48.020;11.720;2022-09-09T05:47:55;14.90;99.90
7648;DHT22;3866;48.020;11.720;2022-09-09T05:50:22;14.90;99.90
7648;DHT22;3866;48.020;11.720;2022-09-09T05:52:49;15.00;99.90
7648;DHT22;3866;48.020;11.720;2022-09-09T05:55:17;15.00;99.90
7648;DHT22;3866;48.020;11.720;2022-09-09T05:57:48;15.00;99.90
7648;DHT22;3866;48.020;11.720;2022-09-09T06:00:17;14.90;99.90
7648;DHT22;3866;48.020;11.720;2022-09-09T06:02:50;15.00;99.90
7648;DHT22;3866;48.020;11.720;2022-09-09T06:05:17;14.90;99.90
7648;DHT22;3866;48.020;11.720;2022-09-09T06:07:44;14.80;99.90
7648;DHT22;3866;48.020;11.720;2022-09-09T06:10:11;14.70;99.90
7648;DHT22;3866;48.020;11.720;2022-09-09T06:12:40;14.70;99.90
7648;DHT22;3866;48.020;11.720;2022-09-09T06:15:08;14.60;99.90
7648;DHT22;3866;48.020;11.720;2022-09-09T06:17:35;14.60;99.90
7648;DHT22;3866;48.020;11.720;2022-09-09T06:20:03;14.60;99.90
7648;DHT22;3866;48.020;11.720;2022-09-09T06:22:30;14.60;99.90
7648;DHT22;3866;48.020;11.720;2022-09-09T06:24:57;14.60;99.90
7648;DHT22;3866;48.020;11.720;2022-09-09T06:27:27;14.50;99.90
7648;DHT22;3866;48.020;11.720;2022-09-09T06:29:55;14.50;99.90
7648;DHT22;3866;48.020;11.720;2022-09-09T06:32:22;14.50;99.90
7648;DHT22;3866;48.020;11.720;2022-09-09T06:34:49;14.60;99.90
7648;DHT22;3866;48.020;11.720;2022-09-09T06:37:16;14.60;99.90
7648;DHT22;3866;48.020;11.720;2022-09-09T06:39:42;14.60;99.90
7648;DHT22;3866;48.020;11.720;2022-09-09T06:42:09;14.60;99.90
7648;DHT22;3866;48.020;11.720;2022-09-09T06:44:36;14.50;99.90
7648;DHT22;3866;48.020;11.720;2022-09-09T06:47:04;14.30;99.90
7648;DHT22;3866;48.020;11.720;2022-09-09T06:49:32;14.30;99.90
7648;DHT22;3866;48.020;11.720;2022-09-09T06:51:58;14.30;99.90
7648;DHT22;3866;48.020;11.720;2022-09-09T06:54:25;14.20;99.90
7648;DHT22;3866;48.020;11.720;2022-09-09T06:56:52;14.30;99.90
7648;DHT22;3866;48.020;11.720;2022-09-09T06:59:19;14.30;99.90
7648;DHT22;3866;48.020;11.720;2022-09-09T07:01:46;14.30;99.90
7648;DHT22;3866;48.020;11.720;2022-09-09T07:04:14;14.30;99.90
7648;DHT22;3866;48.020;11.720;2022-09-09T07:06:43;14.40;99.90
7648;DHT22;3866;48.020;11.720;2022-09-09T07:09:12;14.50;99.90
7648;DHT22;3866;48.020;11.720;2022-09-09T07:11:41;14.50;99.90
7648;DHT22;3866;48.020;11.720;2022-09-09T07:14:09;14.60;99.90
7648;DHT22;3866;48.020;11.720;2022-09-09T07:16:39;14.60;99.90
7648;DHT22;3866;48.020;11.720;2022-09-09T07:19:09;14.70;99.90
7648;DHT22;3866;48.020;11.720;2022-09-09T07:21:38;14.60;99.90
7648;DHT22;3866;48.020;11.720;2022-09-09T07:24:06;14.70;99.90
7648;DHT22;3866;48.020;11.720;2022-09-09T07:26:36;14.70;99.90
7648;DHT22;3866;48.020;11.720;2022-09-09T07:29:03;14.70;99.90
7648;DHT22;3866;48.020;11.720;2022-09-09T07:31:32;14.80;99.90
7648;DHT22;3866;48.020;11.720;2022-09-09T07:33:59;14.80;99.90
7648;DHT22;3866;48.020;11.720;2022-09-09T07:36:28;14.90;99.90
7648;DHT22;3866;48.020;11.720;2022-09-09T07:38:58;14.90;99.90
7648;DHT22;3866;48.020;11.720;2022-09-09T07:41:28;14.90;99.90
7648;DHT22;3866;48.020;11.720;2022-09-09T07:43:56;14.90;99.90
7648;DHT22;3866;48.020;11.720;2022-09-09T07:46:25;14.80;99.90
7648;DHT22;3866;48.020;11.720;2022-09-09T07:48:53;14.80;99.90
7648;DHT22;3866;48.020;11.720;2022-09-09T07:51:23;14.80;99.90
7648;DHT22;3866;48.020;11.720;2022-09-09T07:53:53;14.70;99.90
7648;DHT22;3866;48.020;11.720;2022-09-09T07:56:22;14.50;99.90
7648;DHT22;3866;48.020;11.720;2022-09-09T07:58:50;14.50;99.90
7648;DHT22;3866;48.020;11.720;2022-09-09T08:01:18;14.50;99.90
7648;DHT22;3866;48.020;11.720;2022-09-09T08:03:47;14.50;99.90
7648;DHT22;3866;48.020;11.720;2022-09-09T08:06:14;14.50;99.90
7648;DHT22;3866;48.020;11.720;2022-09-09T08:08:41;14.30;99.90
7648;DHT22;3866;48.020;11.720;2022-09-09T08:11:10;14.30;99.90
7648;DHT22;3866;48.020;11.720;2022-09-09T08:13:39;14.30;99.90
7648;DHT22;3866;48.020;11.720;2022-09-09T08:16:08;14.20;99.90
7648;DHT22;3866;48.020;11.720;2022-09-09T08:18:37;14.20;99.90
7648;DHT22;3866;48.020;11.720;2022-09-09T08:21:09;14.20;99.90
7648;DHT22;3866;48.020;11.720;2022-09-09T08:23:37;14.20;99.90
7648;DHT22;3866;48.020;11.720;2022-09-09T08:26:10;14.30;99.90
7648;DHT22;3866;48.020;11.720;2022-09-09T08:28:38;14.30;99.90
7648;DHT22;3866;48.020;11.720;2022-09-09T08:31:11;14.40;99.90
7648;DHT22;3866;48.020;11.720;2022-09-09T08:33:39;14.40;99.90
7648;DHT22;3866;48.020;11.720;2022-09-09T08:36:09;14.40;99.90
7648;DHT22;3866;48.020;11.720;2022-09-09T08:38:37;14.40;99.90
7648;DHT22;3866;48.020;11.720;2022-09-09T08:44:28;14.40;99.90
7648;DHT22;3866;48.020;11.720;2022-09-09T08:47:05;14.50;99.90
7648;DHT22;3866;48.020;11.720;2022-09-09T08:49:53;14.60;99.90
7648;DHT22;3866;48.020;11.720;2022-09-09T08:52:25;14.60;99.90
7648;DHT22;3866;48.020;11.720;2022-09-09T08:54:55;14.60;99.90
7648;DHT22;3866;48.020;11.720;2022-09-09T08:57:27;14.60;99.90
7648;DHT22;3866;48.020;11.720;2022-09-09T08:59:58;14.60;99.90
7648;DHT22;3866;48.020;11.720;2022-09-09T09:02:27;14.70;99.90
7648;DHT22;3866;48.020;11.720;2022-09-09T09:05:09;14.70;99.90
7648;DHT22;3866;48.020;11.720;2022-09-09T09:07:48;14.60;99.90
7648;DHT22;3866;48.020;11.720;2022-09-09T09:10:24;14.80;99.90
7648;DHT22;3866;48.020;11.720;2022-09-09T09:12:57;14.70;99.90
7648;DHT22;3866;48.020;11.720;2022-09-09T09:15:32;14.80;99.90
7648;DHT22;3866;48.020;11.720;2022-09-09T09:18:02;15.00;99.90
7648;DHT22;3866;48.020;11.720;2022-09-09T09:20:35;14.90;99.90
7648;DHT22;3866;48.020;11.720;2022-09-09T09:23:05;15.00;99.90
7648;DHT22;3866;48.020;11.720;2022-09-09T09:25:35;15.00;99.90
7648;DHT22;3866;48.020;11.720;2022-09-09T09:28:13;15.00;99.90
7648;DHT22;3866;48.020;11.720;2022-09-09T09:30:48;15.00;99.90
7648;DHT22;3866;48.020;11.720;2022-09-09T09:33:21;15.20;99.90
7648;DHT22;3866;48.020;11.720;2022-09-09T09:35:50;15.10;99.90
7648;DHT22;3866;48.020;11.720;2022-09-09T09:38:18;15.10;99.90
7648;DHT22;3866;48.020;11.720;2022-09-09T09:40:51;15.00;99.90
7648;DHT22;3866;48.020;11.720;2022-09-09T09:43:24;15.00;99.90
7648;DHT22;3866;48.020;11.720;2022-09-09T09:45:53;15.00;99.90
7648;DHT22;3866;48.020;11.720;2022-09-09T09:48:20;15.00;99.90
7648;DHT22;3866;48.020;11.720;2022-09-09T09:50:49;15.00;99.90
7648;DHT22;3866;48.020;11.720;2022-09-09T09:53:21;15.10;99.90
7648;DHT22;3866;48.020;11.720;2022-09-09T09:55:56;15.10;99.90
7648;DHT22;3866;48.020;11.720;2022-09-09T09:58:25;15.20;99.90
7648;DHT22;3866;48.020;11.720;2022-09-09T10:00:54;15.30;99.90
7648;DHT22;3866;48.020;11.720;2022-09-09T10:03:24;15.30;99.90
7648;DHT22;3866;48.020;11.720;2022-09-09T10:05:52;15.30;99.90
7648;DHT22;3866;48.020;11.720;2022-09-09T10:08:19;15.40;99.90
7648;DHT22;3866;48.020;11.720;2022-09-09T10:11:12;15.50;99.90
7648;DHT22;3866;48.020;11.720;2022-09-09T10:13:48;15.60;99.90
7648;DHT22;3866;48.020;11.720;2022-09-09T10:16:33;15.50;99.90
7648;DHT22;3866;48.020;11.720;2022-09-09T10:19:05;15.50;99.90
7648;DHT22;3866;48.020;11.720;2022-09-09T10:21:59;15.50;99.90
7648;DHT22;3866;48.020;11.720;2022-09-09T10:27:38;15.70;99.90
7648;DHT22;3866;48.020;11.720;2022-09-09T10:30:14;15.70;99.90
7648;DHT22;3866;48.020;11.720;2022-09-09T10:32:48;15.80;99.90
7648;DHT22;3866;48.020;11.720;2022-09-09T10:35:30;15.70;99.90
7648;DHT22;3866;48.020;11.720;2022-09-09T10:38:13;15.80;99.90
7648;DHT22;3866;48.020;11.720;2022-09-09T10:40:46;15.70;99.90
7648;DHT22;3866;48.020;11.720;2022-09-09T10:43:32;15.70;99.90
7648;DHT22;3866;48.020;11.720;2022-09-09T10:46:05;15.70;99.90
7648;DHT22;3866;48.020;11.720;2022-09-09T10:48:44;15.60;99.90
7648;DHT22;3866;48.020;11.720;2022-09-09T10:51:23;15.60;99.90
7648;DHT22;3866;48.020;11.720;2022-09-09T10:54:13;15.60;99.90
7648;DHT22;3866;48.020;11.720;2022-09-09T10:56:44;15.60;99.90
7648;DHT22;3866;48.020;11.720;2022-09-09T10:59:14;15.70;99.90
7648;DHT22;3866;48.020;11.720;2022-09-09T11:01:46;15.70;99.90
7648;DHT22;3866;48.020;11.720;2022-09-09T11:04:19;15.70;99.90
7648;DHT22;3866;48.020;11.720;2022-09-09T11:06:52;15.60;99.90
7648;DHT22;3866;48.020;11.720;2022-09-09T11:09:23;15.70;99.90
7648;DHT22;3866;48.020;11.720;2022-09-09T11:11:53;15.70;99.90
7648;DHT22;3866;48.020;11.720;2022-09-09T11:14:26;15.60;99.90
7648;DHT22;3866;48.020;11.720;2022-09-09T11:16:57;15.70;99.90
7648;DHT22;3866;48.020;11.720;2022-09-09T11:19:31;15.70;99.90
7648;DHT22;3866;48.020;11.720;2022-09-09T11:22:03;15.70;99.90
7648;DHT22;3866;48.020;11.720;2022-09-09T11:24:36;15.70;99.90
7648;DHT22;3866;48.020;11.720;2022-09-09T11:27:11;15.70;99.90
7648;DHT22;3866;48.020;11.720;2022-09-09T11:35:52;15.90;99.90
7648;DHT22;3866;48.020;11.720;2022-09-09T11:38:25;15.90;99.90
7648;DHT22;3866;48.020;11.720;2022-09-09T11:40:58;16.10;99.90
7648;DHT22;3866;48.020;11.720;2022-09-09T11:43:29;16.00;99.90
7648;DHT22;3866;48.020;11.720;2022-09-09T11:45:58;16.20;99.90
7648;DHT22;3866;48.020;11.720;2022-09-09T11:48:31;16.40;99.90
7648;DHT22;3866;48.020;11.720;2022-09-09T11:51:03;16.50;99.90
7648;DHT22;3866;48.020;11.720;2022-09-09T11:53:31;16.40;99.90
7648;DHT22;3866;48.020;11.720;2022-09-09T11:56:04;16.50;99.90
7648;DHT22;3866;48.020;11.720;2022-09-09T11:58:37;16.40;99.90
7648;DHT22;3866;48.020;11.720;2022-09-09T12:01:26;16.70;99.90
7648;DHT22;3866;48.020;11.720;2022-09-09T12:04:09;16.90;99.90
7648;DHT22;3866;48.020;11.720;2022-09-09T12:06:44;16.40;99.90
7648;DHT22;3866;48.020;11.720;2022-09-09T12:09:22;16.50;99.90
7648;DHT22;3866;48.020;11.720;2022-09-09T12:11:51;16.60;99.90
7648;DHT22;3866;48.020;11.720;2022-09-09T12:14:34;16.90;99.90
7648;DHT22;3866;48.020;11.720;2022-09-09T12:17:10;17.10;99.90
7648;DHT22;3866;48.020;11.720;2022-09-09T12:19:44;17.00;99.90
7648;DHT22;3866;48.020;11.720;2022-09-09T12:22:20;17.00;99.90
7648;DHT22;3866;48.020;11.720;2022-09-09T12:24:56;17.10;99.90
7648;DHT22;3866;48.020;11.720;2022-09-09T12:27:29;17.00;99.90
7648;DHT22;3866;48.020;11.720;2022-09-09T12:30:02;16.80;99.90
7648;DHT22;3866;48.020;11.720;2022-09-09T12:32:30;16.70;99.90
7648;DHT22;3866;48.020;11.720;2022-09-09T12:35:02;16.90;99.90
7648;DHT22;3866;48.020;11.720;2022-09-09T12:37:35;17.10;99.90
7648;DHT22;3866;48.020;11.720;2022-09-09T12:40:04;16.90;99.90
7648;DHT22;3866;48.020;11.720;2022-09-09T12:42:32;17.00;99.90
7648;DHT22;3866;48.020;11.720;2022-09-09T12:45:01;17.00;99.90
7648;DHT22;3866;48.020;11.720;2022-09-09T12:47:40;17.40;99.90
7648;DHT22;3866;48.020;11.720;2022-09-09T12:50:16;17.60;99.90
7648;DHT22;3866;48.020;11.720;2022-09-09T12:52:45;17.50;99.90
7648;DHT22;3866;48.020;11.720;2022-09-09T12:55:18;17.50;99.90
7648;DHT22;3866;48.020;11.720;2022-09-09T12:57:46;17.20;99.90
7648;DHT22;3866;48.020;11.720;2022-09-09T13:00:17;17.60;99.90
7648;DHT22;3866;48.020;11.720;2022-09-09T13:02:48;17.30;99.90
7648;DHT22;3866;48.020;11.720;2022-09-09T13:05:18;17.30;99.90
7648;DHT22;3866;48.020;11.720;2022-09-09T13:07:47;17.40;99.90
7648;DHT22;3866;48.020;11.720;2022-09-09T13:10:21;17.50;99.90
7648;DHT22;3866;48.020;11.720;2022-09-09T13:12:50;17.50;99.90
7648;DHT22;3866;48.020;11.720;2022-09-09T13:15:24;17.40;99.90
7648;DHT22;3866;48.020;11.720;2022-09-09T13:17:54;17.40;99.90
7648;DHT22;3866;48.020;11.720;2022-09-09T13:20:23;17.30;99.90
7648;DHT22;3866;48.020;11.720;2022-09-09T13:22:53;17.30;99.90
7648;DHT22;3866;48.020;11.720;2022-09-09T13:25:23;17.30;99.90
7648;DHT22;3866;48.020;11.720;2022-09-09T13:27:57;17.40;99.90
7648;DHT22;3866;48.020;11.720;2022-09-09T13:30:27;17.10;99.90
7648;DHT22;3866;48.020;11.720;2022-09-09T13:33:17;17.00;99.90
7648;DHT22;3866;48.020;11.720;2022-09-09T13:35:47;17.10;99.90
7648;DHT22;3866;48.020;11.720;2022-09-09T13:38:17;17.20;99.90
7648;DHT22;3866;48.020;11.720;2022-09-09T13:40:55;17.00;99.90
7648;DHT22;3866;48.020;11.720;2022-09-09T13:43:24;16.90;99.90
7648;DHT22;3866;48.020;11.720;2022-09-09T13:45:56;16.80;99.90
7648;DHT22;3866;48.020;11.720;2022-09-09T13:48:23;16.80;99.90
7648;DHT22;3866;48.020;11.720;2022-09-09T13:50:55;16.80;99.90
7648;DHT22;3866;48.020;11.720;2022-09-09T13:53:24;16.60;99.90
7648;DHT22;3866;48.020;11.720;2022-09-09T13:55:51;16.70;99.90
7648;DHT22;3866;48.020;11.720;2022-09-09T13:58:18;16.80;99.90
7648;DHT22;3866;48.020;11.720;2022-09-09T14:00:46;16.80;99.90
7648;DHT22;3866;48.020;11.720;2022-09-09T14:03:13;16.80;99.90
7648;DHT22;3866;48.020;11.720;2022-09-09T14:05:40;16.80;99.90
7648;DHT22;3866;48.020;11.720;2022-09-09T14:08:15;16.80;99.90
7648;DHT22;3866;48.020;11.720;2022-09-09T14:10:44;16.70;99.90
7648;DHT22;3866;48.020;11.720;2022-09-09T14:13:10;16.50;99.90
7648;DHT22;3866;48.020;11.720;2022-09-09T14:15:37;16.50;99.90
7648;DHT22;3866;48.020;11.720;2022-09-09T14:18:04;16.50;99.90
7648;DHT22;3866;48.020;11.720;2022-09-09T14:20:31;16.40;99.90
7648;DHT22;3866;48.020;11.720;2022-09-09T14:22:58;16.50;99.90
7648;DHT22;3866;48.020;11.720;2022-09-09T14:25:25;16.50;99.90
7648;DHT22;3866;48.020;11.720;2022-09-09T14:27:54;16.50;99.90
7648;DHT22;3866;48.020;11.720;2022-09-09T14:30:21;16.60;99.90
7648;DHT22;3866;48.020;11.720;2022-09-09T14:32:48;16.70;99.90
7648;DHT22;3866;48.020;11.720;2022-09-09T14:35:15;16.70;99.90
7648;DHT22;3866;48.020;11.720;2022-09-09T14:37:43;16.60;99.90
7648;DHT22;3866;48.020;11.720;2022-09-09T14:40:10;16.60;99.90
7648;DHT22;3866;48.020;11.720;2022-09-09T14:42:37;16.60;99.90
7648;DHT22;3866;48.020;11.720;2022-09-09T14:45:07;16.50;99.90
7648;DHT22;3866;48.020;11.720;2022-09-09T14:47:34;16.60;99.90
7648;DHT22;3866;48.020;11.720;2022-09-09T14:50:02;16.70;99.90
7648;DHT22;3866;48.020;11.720;2022-09-09T14:52:30;16.70;99.90
7648;DHT22;3866;48.020;11.720;2022-09-09T14:54:57;16.70;99.90
7648;DHT22;3866;48.020;11.720;2022-09-09T14:57:24;16.70;99.90
7648;DHT22;3866;48.020;11.720;2022-09-09T14:59:51;16.80;99.90
7648;DHT22;3866;48.020;11.720;2022-09-09T15:02:20;16.80;99.90
7648;DHT22;3866;48.020;11.720;2022-09-09T15:04:47;16.90;99.90
7648;DHT22;3866;48.020;11.720;2022-09-09T15:07:15;17.00;99.90
7648;DHT22;3866;48.020;11.720;2022-09-09T15:09:42;17.10;99.90
7648;DHT22;3866;48.020;11.720;2022-09-09T15:12:09;17.10;99.90
7648;DHT22;3866;48.020;11.720;2022-09-09T15:14:36;17.20;99.90
7648;DHT22;3866;48.020;11.720;2022-09-09T15:17:03;17.20;99.90
7648;DHT22;3866;48.020;11.720;2022-09-09T15:19:32;17.20;99.90
7648;DHT22;3866;48.020;11.720;2022-09-09T15:21:59;17.10;99.90
7648;DHT22;3866;48.020;11.720;2022-09-09T15:24:26;17.20;99.90
7648;DHT22;3866;48.020;11.720;2022-09-09T15:26:53;17.20;99.90
7648;DHT22;3866;48.020;11.720;2022-09-09T15:29:20;17.30;99.90
7648;DHT22;3866;48.020;11.720;2022-09-09T15:31:47;17.20;99.90
7648;DHT22;3866;48.020;11.720;2022-09-09T15:34:14;17.10;99.90
7648;DHT22;3866;48.020;11.720;2022-09-09T15:36:44;17.10;99.90
7648;DHT22;3866;48.020;11.720;2022-09-09T15:39:12;16.90;99.90
7648;DHT22;3866;48.020;11.720;2022-09-09T15:41:41;16.90;99.90
7648;DHT22;3866;48.020;11.720;2022-09-09T15:44:10;16.80;99.90
7648;DHT22;3866;48.020;11.720;2022-09-09T15:46:38;16.90;99.90
7648;DHT22;3866;48.020;11.720;2022-09-09T15:49:07;16.80;99.90
7648;DHT22;3866;48.020;11.720;2022-09-09T15:51:35;16.70;99.90
7648;DHT22;3866;48.020;11.720;2022-09-09T15:54:04;16.50;99.90
7648;DHT22;3866;48.020;11.720;2022-09-09T15:56:31;16.50;99.90
7648;DHT22;3866;48.020;11.720;2022-09-09T15:59:01;16.40;99.90
7648;DHT22;3866;48.020;11.720;2022-09-09T16:01:29;16.40;99.90
7648;DHT22;3866;48.020;11.720;2022-09-09T16:03:57;16.30;99.90
7648;DHT22;3866;48.020;11.720;2022-09-09T16:06:25;16.30;99.90
7648;DHT22;3866;48.020;11.720;2022-09-09T16:08:54;16.30;99.90
7648;DHT22;3866;48.020;11.720;2022-09-09T16:11:24;16.30;99.90
7648;DHT22;3866;48.020;11.720;2022-09-09T16:13:53;16.20;99.90
7648;DHT22;3866;48.020;11.720;2022-09-09T16:16:22;16.20;99.90
7648;DHT22;3866;48.020;11.720;2022-09-09T16:18:51;16.20;99.90
7648;DHT22;3866;48.020;11.720;2022-09-09T16:21:20;16.20;99.90